Terminal Aerodrome Forecast
Issued by NWS Sterling, VA

Current Version | Previous Version | Text Only | Print | Product List | Glossary Off
Versions: 1 2 3 4 5 6 7 8 9 10 11 12 13 14 15 16 17 18 19 20 21 22

000
FTUS41 KLWX 142100 AAA
TAFDCA
TAF AMD
KDCA 142101Z 1421/1518 35007KT P6SM FEW050 BKN250
     FM150300 22004KT P6SM BKN250
     FM151300 VRB03KT P6SM BKN250=

USA.gov is the U.S. government's official web portal to all federal, state and local government web resources and services.